Flight Track Log - Related Links

Times and Time Zones

All times are in EDT time to prevent confusion due to time zone crossing. See the EJA382 flight status page for this flight to view local times or setup timezone preferences in your user account.


Time Position Orientation Groundspeed Altitude Reporting Facility
EDT Latitude Longitude Course Direction KTS MPH feet Rate Location/Type
Thu 08:41:09 PM 41.8000 -87.7167 90° East 168 193 2,800  Level Chicago TRACON
Thu 08:42:09 PM 41.8000 -87.6500 90° East 213 245 5,100 1,350 Climbing Chicago TRACON
Thu 08:43:09 PM 41.8000 -87.5500 90° East 273 314 5,500 2,296 Climbing Chicago TRACON
Thu 08:44:04 PM 41.8000 -87.4500 90° East 295 339 9,500 4,083 Climbing Chicago TRACON
Thu 08:44:21 PM 41.7919 -87.4328 122° Southeast 287 330 10,400 2,658 Climbing Chicago Center
Thu 08:45:23 PM 41.7828 -87.3225 96° East 298 343 13,000 1,258 Climbing Chicago Center
Thu 08:46:25 PM 41.7686 -87.1622 97° East 369 425 13,000  Level Chicago Center
Thu 08:47:27 PM 41.7600 -87.0250 95° East 372 428 13,000  Level Chicago Center
Thu 08:48:29 PM 41.7636 -86.8878 88° East 370 426 13,000  Level Chicago Center
Thu 08:49:32 PM 41.7650 -86.7500 89° East 370 426 13,000  Level Chicago Center
Thu 08:50:34 PM 41.7986 -86.6058 73° East 373 429 13,000  Level Chicago Center
Thu 08:51:36 PM 41.8436 -86.4794 64° Northeast 374 430 13,000  Level Chicago Center
Thu 08:52:38 PM 41.8878 -86.3525 65° Northeast 377 434 13,000 -290 Level Chicago Center
Thu 08:53:40 PM 41.9311 -86.2286 65° Northeast 368 423 12,400 -919 Descending Chicago Center
Thu 08:54:42 PM 41.9711 -86.1119 65° Northeast 350 403 11,100 -677 Descending Chicago Center
Thu 08:55:44 PM 42.0133 -85.9925 65° Northeast 352 405 11,000 -194 Descending Chicago Center
Thu 08:56:46 PM 42.0597 -85.8581 65° Northeast 355 409 10,700 -1,258 Descending Chicago Center
Thu 08:57:48 PM 42.0972 -85.7492 65° Northeast 295 339 8,400 -2,419 Descending Chicago Center
Thu 08:58:50 PM 42.1300 -85.6558 65° Northeast 280 322 5,700 -2,565 Descending Chicago Center
Thu 08:59:52 PM 42.1606 -85.5658 65° Northeast 270 311 3,100 -1,536 Descending Chicago Center
Thu 09:00:55 PM 42.1869 -85.4881 65° Northeast 243 280 2,500 -288 Descending Chicago Center
Thu 09:01:57 PM 42.2142 -85.4097 65° Northeast 229 264 2,500  Level Chicago Center
Thu 09:02:59 PM 42.2469 -85.3294 61° Northeast 204 235 2,500 -290 Level Chicago Center
Thu 09:04:01 PM 42.2689 -85.3006 44° Northeast 128 147 1,900 -484 Descending Chicago Center
Thu 09:05:03 PM 42.2872 -85.2803 39° Northeast 115 132 1,500 -387 Descending Chicago Center
Thu 09:07:00 PM 42.3000 -85.2500 66° East  Level FlightAware Approximate

Login

Don't have an account? Register now (free) for customized features, flight alerts, and more!